world map with HOF marked

HOF - Airport

This information may not be accurate or current and is not valid for navigation or flight planning. No warranty of fitness for any purpose is made or implied.

flag of Saudi Arabia

Donate via PayPal

Additional information is available on the NEW Great Circle Mapper

Location
City:  Hofuf, Saudi Arabia
Near (Alt.):Al-Ahsa
Name:Al-Ahsa International Airport
ICAO / IATA:OEAH / HOF

Details
Type:Airport (Aerodrome, Airfield)
Use:Public/Civil
Latitude:25°17'10"N (25.286111)
Longitude:49°29'10"E (49.486111)
Elevation:588 ft (179 m)
Runways:1
Longest:10039 × 148 ft (3060 × 45 m)

Time
Timezone:UTC+3 (DST+5)
Local Time:

Weather
METAR:OEAH  110000Z 02005KT CAVOK 19/12 Q1017 NOSIG
TAF:OEAH  (expired)

Related Locations
Nearby:
Farthest:GMR: 12128 mi / 19518 km
Mangareva [Totegegie], Gambier Islands, PF

Find:

   beyond  
but within

Other Information
Maps:
Sources:

  


 


Great Circle Mapper   Great Circle Mapper
Great Circle Mapper FAQ   Great Circle Mapper FAQ
  Karl's Home Page
KLSē   KLSē Home
   GC on Facebook
Airlines of the World   Airlines of the World
Donate via PayPal


Copyright © 2004-2018, Karl L. Swartz. All rights reserved.
All trademarks mentioned herein belong to their respective owners.

Please see credits for attribution and copyright information.

Karl Swartz <karl@kls2.com>
  Powered by FreeBSD
Valid HTML 4.01!
Labeled with ICRA
hCard Microformat
Geo Microformat